Time;durP1;ratioP1;P1;durP2;ratioP2;P2;SDS_P1;SDS_P2;PMS_P1;PMS_P2;Temp;Humidity;BMP_temperature;BMP_pressure;BME280_temperature;BME280_humidity;BME280_pressure;Samples;Min_cycle;Max_cycle;Signal;HPM_P1;HPM_P2
2023/05/07 00:01:42;;;;;;;9.30;6.18;;;14.00;99.90;;;;;;5114197;28;20027;-71
2023/05/07 00:04:08;;;;;;;11.02;6.40;;;13.80;99.90;;;;;;5113876;28;20550;-71
2023/05/07 00:06:34;;;;;;;8.60;6.20;;;13.90;99.90;;;;;;5114163;28;20118;-71
2023/05/07 00:09:00;;;;;;;11.80;7.33;;;13.80;99.90;;;;;;5114077;28;20052;-71
2023/05/07 00:11:27;;;;;;;10.18;6.60;;;13.80;99.90;;;;;;5114548;28;20039;-71
2023/05/07 00:13:52;;;;;;;12.55;7.15;;;13.80;99.90;;;;;;5113983;28;20039;-71
2023/05/07 00:16:18;;;;;;;13.37;7.53;;;13.80;99.90;;;;;;5114187;28;20036;-70
2023/05/07 00:18:44;;;;;;;10.32;6.90;;;13.70;99.90;;;;;;5114002;28;20479;-70
2023/05/07 00:21:10;;;;;;;10.82;7.90;;;13.70;99.90;;;;;;5113802;28;20050;-70
2023/05/07 00:23:36;;;;;;;13.00;8.43;;;13.60;99.90;;;;;;5113960;28;20031;-71
2023/05/07 00:26:02;;;;;;;10.73;7.93;;;14.00;99.90;;;;;;5113882;28;20031;-71
2023/05/07 00:28:27;;;;;;;12.90;8.17;;;13.60;99.90;;;;;;5114016;28;20044;-71
2023/05/07 00:30:53;;;;;;;12.23;8.67;;;13.50;99.90;;;;;;5113975;28;20039;-71
2023/05/07 00:33:20;;;;;;;13.23;8.63;;;13.60;99.90;;;;;;5113899;28;20097;-71
2023/05/07 00:35:46;;;;;;;11.52;8.45;;;13.50;99.90;;;;;;5113999;28;20039;-70
2023/05/07 00:38:12;;;;;;;10.10;7.70;;;13.50;99.90;;;;;;5113770;28;20036;-71
2023/05/07 00:40:37;;;;;;;12.02;8.90;;;13.40;99.90;;;;;;5117644;28;20310;-71
2023/05/07 00:43:03;;;;;;;12.45;8.98;;;13.40;99.90;;;;;;5117826;28;20046;-70
2023/05/07 00:45:30;;;;;;;11.75;8.45;;;13.40;99.90;;;;;;5117789;28;20435;-70
2023/05/07 00:47:58;;;;;;;11.60;8.18;;;13.30;99.90;;;;;;5117608;28;20036;-71
2023/05/07 00:50:25;;;;;;;13.35;8.98;;;13.40;99.90;;;;;;5117662;28;20116;-71
2023/05/07 00:52:51;;;;;;;13.05;9.05;;;13.20;99.90;;;;;;5117446;28;20474;-70
2023/05/07 00:55:17;;;;;;;12.33;8.17;;;13.10;99.90;;;;;;5117652;27;20134;-71
2023/05/07 00:57:44;;;;;;;13.03;8.43;;;13.10;99.90;;;;;;5117560;28;20035;-71
2023/05/07 01:00:12;;;;;;;12.32;8.55;;;13.00;99.90;;;;;;5117613;28;20054;-71
2023/05/07 01:02:39;;;;;;;15.30;8.80;;;12.90;99.90;;;;;;5117421;28;20036;-70
2023/05/07 01:05:06;;;;;;;14.10;9.02;;;12.80;99.90;;;;;;5117475;28;20051;-70
2023/05/07 01:07:33;;;;;;;13.02;9.48;;;12.80;99.90;;;;;;5117274;28;20055;-71
2023/05/07 01:10:00;;;;;;;12.68;8.93;;;12.70;99.90;;;;;;5117271;28;20044;-71
2023/05/07 01:12:26;;;;;;;;;;;12.70;99.90;;;;;;5117655;28;20038;-71
2023/05/07 01:14:52;;;;;;;15.43;9.27;;;12.60;99.90;;;;;;5117234;28;19916;-71
2023/05/07 01:17:17;;;;;;;14.67;9.73;;;12.60;99.90;;;;;;5117352;28;20382;-70
2023/05/07 01:19:44;;;;;;;14.32;9.50;;;12.60;99.90;;;;;;5117068;28;20035;-70
2023/05/07 01:22:14;;;;;;;13.50;9.30;;;12.50;99.90;;;;;;5117002;28;20079;-70
2023/05/07 01:24:41;;;;;;;15.50;10.02;;;12.50;99.90;;;;;;5117022;28;20046;-70
2023/05/07 01:27:07;;;;;;;14.52;9.35;;;12.40;99.90;;;;;;5116899;28;20062;-70
2023/05/07 01:29:32;;;;;;;14.60;10.20;;;12.40;99.90;;;;;;5116960;28;20031;-71
2023/05/07 01:32:00;;;;;;;13.67;9.33;;;12.40;99.90;;;;;;5116840;28;20475;-70
2023/05/07 01:34:28;;;;;;;16.38;10.88;;;12.40;99.90;;;;;;5116847;28;20383;-71
2023/05/07 01:36:57;;;;;;;15.60;10.65;;;12.30;99.90;;;;;;5116719;28;20047;-70
2023/05/07 01:39:28;;;;;;;16.33;10.90;;;12.60;99.90;;;;;;5116736;28;20089;-70
2023/05/07 01:41:56;;;;;;;14.60;10.65;;;12.30;99.90;;;;;;5116692;28;20040;-70
2023/05/07 01:44:22;;;;;;;16.42;10.80;;;12.30;99.90;;;;;;5116713;28;20059;-70
2023/05/07 01:46:48;;;;;;;17.23;10.15;;;12.20;99.90;;;;;;5116483;28;20114;-70
2023/05/07 01:49:15;;;;;;;16.80;10.27;;;12.20;99.90;;;;;;5116481;28;20544;-70
2023/05/07 01:51:41;;;;;;;;;;;12.20;99.90;;;;;;5116797;28;20036;-70
2023/05/07 01:54:08;;;;;;;16.50;11.00;;;12.20;99.90;;;;;;5116513;28;19969;-70
2023/05/07 01:56:33;;;;;;;;;;;12.20;99.90;;;;;;5116815;27;20132;-70
2023/05/07 01:58:59;;;;;;;19.25;12.25;;;12.10;99.90;;;;;;5116607;28;19919;-70
2023/05/07 02:01:25;;;;;;;16.40;10.80;;;12.20;99.90;;;;;;5116329;28;20371;-71
2023/05/07 02:03:50;;;;;;;18.40;11.00;;;12.00;99.90;;;;;;5115943;28;20573;-70
2023/05/07 02:06:16;;;;;;;17.35;11.70;;;12.00;99.90;;;;;;5116114;28;20387;-70
2023/05/07 02:08:42;;;;;;;18.52;11.68;;;12.10;99.90;;;;;;5116515;28;20079;-70
2023/05/07 02:11:07;;;;;;;20.27;12.67;;;11.90;99.90;;;;;;5116153;28;20477;-70
2023/05/07 02:13:34;;;;;;;17.38;11.70;;;11.90;99.90;;;;;;5116069;28;20039;-70
2023/05/07 02:16:00;;;;;;;18.13;12.32;;;11.90;99.90;;;;;;5115957;27;20110;-70
2023/05/07 02:18:26;;;;;;;19.33;12.73;;;11.90;99.90;;;;;;5115970;28;20126;-70
2023/05/07 02:20:51;;;;;;;20.67;11.82;;;11.90;99.90;;;;;;5115882;28;20051;-70
2023/05/07 02:23:17;;;;;;;19.17;12.47;;;11.70;99.90;;;;;;5116243;28;20043;-70
2023/05/07 02:25:42;;;;;;;22.00;13.07;;;11.80;99.90;;;;;;5115755;28;20036;-70
2023/05/07 02:28:08;;;;;;;21.10;12.98;;;12.30;99.90;;;;;;5115744;28;20419;-70
2023/05/07 02:30:34;;;;;;;21.23;13.23;;;11.80;99.90;;;;;;5115887;28;20040;-70
2023/05/07 02:32:59;;;;;;;21.33;12.80;;;11.70;99.90;;;;;;5115664;28;20047;-70
2023/05/07 02:35:25;;;;;;;21.27;12.50;;;11.70;99.90;;;;;;5115622;28;20114;-70
2023/05/07 02:37:51;;;;;;;21.88;13.85;;;11.70;99.90;;;;;;5115566;28;20118;-70
2023/05/07 02:40:17;;;;;;;19.73;12.88;;;11.60;99.90;;;;;;5115523;28;20075;-71
2023/05/07 02:42:42;;;;;;;21.63;12.60;;;11.60;99.90;;;;;;5115772;28;20472;-70
2023/05/07 02:45:09;;;;;;;20.30;13.48;;;11.60;99.90;;;;;;5115482;28;20043;-70
2023/05/07 02:47:34;;;;;;;23.10;14.10;;;11.60;99.90;;;;;;5115389;28;20043;-70
2023/05/07 02:50:00;;;;;;;21.30;13.15;;;11.60;99.90;;;;;;5115335;28;20467;-70
2023/05/07 02:52:26;;;;;;;22.73;14.03;;;11.60;99.90;;;;;;5115201;28;20371;-70
2023/05/07 02:54:51;;;;;;;22.80;14.02;;;12.00;99.90;;;;;;5115676;28;20038;-70
2023/05/07 02:57:17;;;;;;;23.48;14.68;;;11.50;99.90;;;;;;5115515;28;20035;-70
2023/05/07 02:59:43;;;;;;;24.45;14.35;;;11.50;99.90;;;;;;5115183;28;20039;-70
2023/05/07 03:02:08;;;;;;;23.38;13.82;;;11.50;99.90;;;;;;5114620;28;20459;-70
2023/05/07 03:04:34;;;;;;;23.58;14.80;;;11.50;99.90;;;;;;5115059;28;20083;-71
2023/05/07 03:07:00;;;;;;;27.15;15.15;;;11.50;99.90;;;;;;5114957;28;20050;-70
2023/05/07 03:09:25;;;;;;;27.03;14.90;;;11.40;99.90;;;;;;5114970;28;20036;-71
2023/05/07 03:11:51;;;;;;;29.83;14.63;;;11.50;99.90;;;;;;5115039;28;20039;-71
2023/05/07 03:14:17;;;;;;;23.13;14.65;;;11.40;99.90;;;;;;5114947;28;20092;-70
2023/05/07 03:16:42;;;;;;;25.40;15.73;;;11.40;99.90;;;;;;5114819;28;20035;-70
2023/05/07 03:19:08;;;;;;;27.58;15.23;;;11.70;99.90;;;;;;5114781;28;20042;-70
2023/05/07 03:21:34;;;;;;;27.80;15.48;;;11.40;99.90;;;;;;5114729;28;20101;-70
2023/05/07 03:24:00;;;;;;;25.88;14.50;;;11.40;99.90;;;;;;5114743;28;20039;-70
2023/05/07 03:26:25;;;;;;;27.73;15.27;;;11.40;99.90;;;;;;5114946;28;20123;-70
2023/05/07 03:28:51;;;;;;;26.80;15.07;;;11.40;99.90;;;;;;5114904;28;20039;-71
2023/05/07 03:31:17;;;;;;;23.42;14.52;;;12.20;99.90;;;;;;5114444;28;20071;-70
2023/05/07 03:33:54;;;;;;;26.87;15.57;;;11.40;99.90;;;;;;5114615;28;20035;-70
2023/05/07 03:36:20;;;;;;;21.88;14.93;;;11.40;99.90;;;;;;5115028;28;20044;-70
2023/05/07 03:38:46;;;;;;;23.67;14.52;;;11.40;99.90;;;;;;5114212;28;20041;-70
2023/05/07 03:41:12;;;;;;;20.00;13.63;;;11.40;99.90;;;;;;5115005;28;20043;-70
2023/05/07 03:43:37;;;;;;;23.15;14.20;;;11.40;99.90;;;;;;5114421;28;20050;-70
2023/05/07 03:46:03;;;;;;;23.02;14.55;;;11.40;99.90;;;;;;5114334;28;20048;-70
2023/05/07 03:48:29;;;;;;;24.23;15.07;;;11.40;99.90;;;;;;5114034;28;20130;-70
2023/05/07 03:50:55;;;;;;;20.25;13.93;;;11.40;99.90;;;;;;5114349;28;20044;-70
2023/05/07 03:53:21;;;;;;;27.42;15.73;;;11.80;99.90;;;;;;5114340;28;20044;-70
2023/05/07 03:55:46;;;;;;;22.27;13.68;;;11.40;99.90;;;;;;5113926;28;20055;-70
2023/05/07 03:58:12;;;;;;;24.60;13.88;;;11.90;99.90;;;;;;5114197;28;20044;-70
2023/05/07 04:00:39;;;;;;;23.30;15.23;;;11.40;99.90;;;;;;5114069;28;20077;-70
2023/05/07 04:03:05;;;;;;;23.80;14.95;;;11.40;99.90;;;;;;5113760;28;20087;-70
2023/05/07 04:05:31;;;;;;;21.13;13.70;;;11.30;99.90;;;;;;5114632;28;20070;-70
2023/05/07 04:07:58;;;;;;;22.27;14.13;;;11.30;99.90;;;;;;5113955;28;20084;-70
2023/05/07 04:10:24;;;;;;;21.00;13.10;;;11.40;99.90;;;;;;5114050;28;20036;-70
2023/05/07 04:12:49;;;;;;;20.23;13.43;;;11.30;99.90;;;;;;5114217;28;20059;-70
2023/05/07 04:15:15;;;;;;;24.65;14.00;;;11.30;99.90;;;;;;5117436;28;20043;-70
2023/05/07 04:17:41;;;;;;;20.23;12.85;;;11.30;99.90;;;;;;5118326;28;20139;-71
2023/05/07 04:20:10;;;;;;;23.48;13.45;;;11.40;99.90;;;;;;5118272;28;20145;-71
2023/05/07 04:22:36;;;;;;;23.70;14.18;;;11.40;99.90;;;;;;5118166;27;20039;-71
2023/05/07 04:25:02;;;;;;;20.17;12.93;;;11.30;99.90;;;;;;5118522;28;20364;-71
2023/05/07 04:27:28;;;;;;;19.45;12.95;;;11.40;99.90;;;;;;5118019;28;20044;-70
2023/05/07 04:29:55;;;;;;;20.17;12.75;;;11.50;99.90;;;;;;5118104;28;20050;-71
2023/05/07 04:32:22;;;;;;;18.20;13.30;;;11.30;99.90;;;;;;5117882;28;20039;-72
2023/05/07 04:34:47;;;;;;;20.57;12.70;;;11.40;99.90;;;;;;5117947;28;20035;-71
2023/05/07 04:37:13;;;;;;;19.60;12.33;;;11.90;99.90;;;;;;5118201;28;20040;-72
2023/05/07 04:39:38;;;;;;;17.08;11.77;;;11.30;99.90;;;;;;5117891;28;20040;-71
2023/05/07 04:42:07;;;;;;;20.70;12.18;;;11.30;99.90;;;;;;5118023;28;20044;-71
2023/05/07 04:44:33;;;;;;;21.48;13.25;;;11.30;99.90;;;;;;5117818;27;20536;-72
2023/05/07 04:46:58;;;;;;;17.27;12.17;;;11.40;99.90;;;;;;5117281;28;20039;-71
2023/05/07 04:49:24;;;;;;;21.67;12.43;;;11.40;99.90;;;;;;5118178;28;20043;-73
2023/05/07 04:51:50;;;;;;;19.35;11.70;;;11.40;99.90;;;;;;5117521;28;20379;-71
2023/05/07 04:54:15;;;;;;;21.88;13.50;;;11.40;99.90;;;;;;5117884;28;20042;-72
2023/05/07 04:56:41;;;;;;;17.23;12.27;;;11.40;99.90;;;;;;5117576;28;20432;-71
2023/05/07 04:59:07;;;;;;;19.42;11.13;;;11.90;99.90;;;;;;5117563;28;20039;-71
2023/05/07 05:01:33;;;;;;;18.10;12.18;;;11.40;99.90;;;;;;5117448;28;20040;-71
2023/05/07 05:04:00;;;;;;;18.13;12.27;;;11.40;99.90;;;;;;5117394;28;20379;-72
2023/05/07 05:06:26;;;;;;;20.63;11.95;;;11.40;99.90;;;;;;5117266;28;20057;-71
2023/05/07 05:08:51;;;;;;;19.85;12.65;;;11.50;99.90;;;;;;5117384;28;20122;-71
2023/05/07 05:11:17;;;;;;;21.98;12.55;;;11.40;99.90;;;;;;5117270;28;20407;-71
2023/05/07 05:13:43;;;;;;;29.35;11.90;;;11.50;99.90;;;;;;5117154;28;20039;-72
2023/05/07 05:16:08;;;;;;;19.85;12.27;;;11.40;99.90;;;;;;5117170;28;20035;-71
2023/05/07 05:18:34;;;;;;;18.42;12.20;;;11.50;99.90;;;;;;5117085;28;20478;-71
2023/05/07 05:21:00;;;;;;;16.93;12.33;;;11.50;99.90;;;;;;5117132;28;20042;-72
2023/05/07 05:23:26;;;;;;;16.90;12.52;;;11.60;99.90;;;;;;5117140;28;20445;-72
2023/05/07 05:25:57;;;;;;;20.57;12.10;;;11.60;99.90;;;;;;5116192;28;20379;-73
2023/05/07 05:28:23;;;;;;;17.33;11.90;;;11.60;99.90;;;;;;5117050;28;20039;-72
2023/05/07 05:30:49;;;;;;;19.03;12.10;;;11.70;99.90;;;;;;5116888;28;20092;-72
2023/05/07 05:33:14;;;;;;;16.02;11.18;;;11.70;99.90;;;;;;5116882;28;20043;-72
2023/05/07 05:35:40;;;;;;;18.83;12.70;;;11.80;99.90;;;;;;5116924;28;20402;-71
2023/05/07 05:38:06;;;;;;;16.35;11.25;;;11.90;99.90;;;;;;5116532;28;20031;-71
2023/05/07 05:40:32;;;;;;;18.77;12.07;;;11.80;99.90;;;;;;5116791;28;20055;-72
2023/05/07 05:42:57;;;;;;;17.55;11.65;;;11.80;99.90;;;;;;5116862;28;20079;-72
2023/05/07 05:45:23;;;;;;;20.13;11.93;;;11.90;99.90;;;;;;5116661;28;20390;-72
2023/05/07 05:47:48;;;;;;;17.13;11.75;;;11.90;99.90;;;;;;5116206;28;20043;-71
2023/05/07 05:50:14;;;;;;;18.33;12.63;;;11.90;99.90;;;;;;5116963;28;20459;-72
2023/05/07 05:52:40;;;;;;;21.88;12.27;;;12.10;99.90;;;;;;5116577;27;20042;-72
2023/05/07 05:55:06;;;;;;;18.33;12.00;;;12.00;99.90;;;;;;5115544;28;20036;-71
2023/05/07 05:57:32;;;;;;;19.10;12.63;;;12.00;99.90;;;;;;5116374;28;20047;-71
2023/05/07 05:59:58;;;;;;;18.00;11.82;;;12.20;99.90;;;;;;5116456;28;20044;-71
2023/05/07 06:02:26;;;;;;;18.50;12.70;;;12.00;99.90;;;;;;5116265;28;20096;-71
2023/05/07 06:04:52;;;;;;;19.60;12.23;;;12.10;99.90;;;;;;5115859;28;20047;-73
2023/05/07 06:07:17;;;;;;;16.80;12.23;;;12.20;99.90;;;;;;5116222;28;20053;-71
2023/05/07 06:09:44;;;;;;;18.70;13.27;;;12.30;99.90;;;;;;5116188;28;20035;-75
2023/05/07 06:12:09;;;;;;;20.80;12.97;;;12.30;99.90;;;;;;5116018;28;20066;-73
2023/05/07 06:14:35;;;;;;;19.30;12.77;;;12.30;99.90;;;;;;5116183;28;20476;-72
2023/05/07 06:17:00;;;;;;;21.42;13.38;;;12.30;99.90;;;;;;5116007;28;20042;-72
2023/05/07 06:19:28;;;;;;;21.80;13.50;;;12.40;99.90;;;;;;5116056;28;20036;-72
2023/05/07 06:21:56;;;;;;;20.17;13.88;;;12.40;99.90;;;;;;5115821;28;20471;-73
2023/05/07 06:24:22;;;;;;;19.30;12.63;;;12.30;99.90;;;;;;5114889;28;20055;-74
2023/05/07 06:26:47;;;;;;;22.03;13.97;;;12.30;99.90;;;;;;5115893;28;20036;-72
2023/05/07 06:29:13;;;;;;;19.80;12.80;;;12.30;99.90;;;;;;5115772;28;20046;-72
2023/05/07 06:31:39;;;;;;;22.67;12.77;;;12.30;99.90;;;;;;5115730;28;20050;-72
2023/05/07 06:34:07;;;;;;;19.13;12.23;;;12.30;99.90;;;;;;5115710;28;20531;-79
2023/05/07 06:36:33;;;;;;;20.45;14.15;;;12.30;99.90;;;;;;5114537;28;20051;-71
2023/05/07 06:39:02;;;;;;;18.70;12.67;;;12.30;99.90;;;;;;5115299;28;20049;-74
2023/05/07 06:41:27;;;;;;;21.48;13.60;;;12.40;99.90;;;;;;5115506;28;20046;-73
2023/05/07 06:43:53;;;;;;;22.43;13.33;;;12.40;99.90;;;;;;5115494;28;20455;-74
2023/05/07 06:46:18;;;;;;;22.23;13.45;;;12.40;99.90;;;;;;5115286;28;20055;-74
2023/05/07 06:48:44;;;;;;;21.40;14.13;;;12.50;99.90;;;;;;5115418;28;20035;-73
2023/05/07 06:51:10;;;;;;;18.67;13.63;;;12.50;99.90;;;;;;5115349;27;20031;-73
2023/05/07 06:53:35;;;;;;;21.02;13.00;;;12.50;99.90;;;;;;5115206;28;20123;-73
2023/05/07 06:56:01;;;;;;;22.67;14.07;;;12.60;99.90;;;;;;5115363;28;20058;-73
2023/05/07 06:58:26;;;;;;;22.85;13.73;;;12.80;99.90;;;;;;5115328;28;20592;-72
2023/05/07 07:00:52;;;;;;;20.48;14.18;;;12.80;99.90;;;;;;5115132;28;20042;-72
2023/05/07 07:03:18;;;;;;;21.63;13.82;;;12.80;99.90;;;;;;5114986;28;20149;-73
2023/05/07 07:05:43;;;;;;;23.88;14.85;;;12.80;99.90;;;;;;5115117;28;20083;-72
2023/05/07 07:08:10;;;;;;;21.58;13.70;;;12.80;99.90;;;;;;5115360;28;20375;-73
2023/05/07 07:10:35;;;;;;;23.58;14.38;;;12.80;99.90;;;;;;5114954;28;20122;-72
2023/05/07 07:13:01;;;;;;;20.60;14.23;;;12.80;99.90;;;;;;5114961;28;20127;-76
2023/05/07 07:15:27;;;;;;;20.00;13.70;;;12.90;99.90;;;;;;5114833;28;20118;-73
2023/05/07 07:17:52;;;;;;;23.70;15.48;;;12.80;99.90;;;;;;5113640;28;20035;-74
2023/05/07 07:20:18;;;;;;;21.08;13.63;;;12.80;99.90;;;;;;5114843;28;20486;-74
2023/05/07 07:22:43;;;;;;;20.95;13.98;;;12.80;99.90;;;;;;5114789;28;20456;-74
2023/05/07 07:25:10;;;;;;;19.65;13.05;;;12.80;99.90;;;;;;5114575;28;20104;-73
2023/05/07 07:27:36;;;;;;;;;;;13.00;99.90;;;;;;5114934;28;20031;-74
2023/05/07 07:30:02;;;;;;;21.42;13.90;;;12.90;99.90;;;;;;5114594;27;19919;-79
2023/05/07 07:32:27;;;;;;;20.25;13.15;;;13.00;99.90;;;;;;5113368;28;20501;-74
2023/05/07 07:34:53;;;;;;;21.70;13.27;;;13.10;99.90;;;;;;5113099;28;20044;-73
2023/05/07 07:37:19;;;;;;;19.35;13.45;;;13.30;99.90;;;;;;5113568;28;20058;-73
2023/05/07 07:39:45;;;;;;;22.58;13.18;;;13.40;99.90;;;;;;5114425;28;20075;-73
2023/05/07 07:42:10;;;;;;;21.05;13.07;;;13.60;99.90;;;;;;5114529;28;20364;-74
2023/05/07 07:44:36;;;;;;;19.88;12.40;;;13.80;99.90;;;;;;5114504;28;20071;-74
2023/05/07 07:47:01;;;;;;;19.43;12.80;;;14.10;99.90;;;;;;5114803;28;20455;-74
2023/05/07 07:49:27;;;;;;;20.57;13.73;;;14.10;99.90;;;;;;5114749;28;20040;-73
2023/05/07 07:51:53;;;;;;;19.93;12.73;;;14.20;99.90;;;;;;5114416;28;20468;-74
2023/05/07 07:54:18;;;;;;;19.08;12.30;;;14.20;99.90;;;;;;5114591;28;20115;-73
2023/05/07 07:56:44;;;;;;;15.85;11.52;;;14.20;99.90;;;;;;5114081;28;20041;-73
2023/05/07 07:59:10;;;;;;;19.02;12.38;;;14.20;99.90;;;;;;5114341;28;20043;-73
2023/05/07 08:01:35;;;;;;;18.97;13.13;;;14.30;99.90;;;;;;5114754;28;20035;-74
2023/05/07 08:04:03;;;;;;;20.33;11.83;;;14.30;99.90;;;;;;5114437;28;20079;-74
2023/05/07 08:06:28;;;;;;;18.48;13.13;;;14.30;99.90;;;;;;5113936;28;20486;-73
2023/05/07 08:08:54;;;;;;;20.47;12.67;;;14.30;99.90;;;;;;5113247;28;20032;-74
2023/05/07 08:11:21;;;;;;;17.77;11.85;;;14.30;99.90;;;;;;5113256;28;20035;-74
2023/05/07 08:13:47;;;;;;;16.98;12.30;;;14.40;99.90;;;;;;5114093;28;20035;-74
2023/05/07 08:16:13;;;;;;;21.08;12.95;;;14.50;99.90;;;;;;5114288;28;20048;-73
2023/05/07 08:18:38;;;;;;;16.98;11.43;;;14.40;99.90;;;;;;5113364;28;20044;-73
2023/05/07 08:21:04;;;;;;;18.57;12.30;;;14.40;99.90;;;;;;5114417;28;20040;-74
2023/05/07 08:23:30;;;;;;;19.00;12.80;;;14.30;99.90;;;;;;5113160;28;20044;-73
2023/05/07 08:25:55;;;;;;;16.25;11.82;;;14.50;99.90;;;;;;5114028;28;20071;-74
2023/05/07 08:28:21;;;;;;;18.30;12.03;;;14.40;99.90;;;;;;5114010;28;20039;-74
2023/05/07 08:30:47;;;;;;;20.23;11.73;;;14.50;99.90;;;;;;5113979;28;20040;-73
2023/05/07 08:33:13;;;;;;;19.33;12.23;;;14.50;99.90;;;;;;5113675;28;20035;-74
2023/05/07 08:35:38;;;;;;;18.83;12.57;;;14.60;99.90;;;;;;5113926;28;20039;-74
2023/05/07 08:38:04;;;;;;;19.27;12.37;;;14.80;99.90;;;;;;5114232;28;20040;-74
2023/05/07 08:40:37;;;;;;;18.65;11.93;;;14.70;99.90;;;;;;5113913;28;20039;-73
2023/05/07 08:43:07;;;;;;;16.90;10.77;;;14.70;99.90;;;;;;5113932;28;20039;-74
2023/05/07 08:45:34;;;;;;;18.27;12.77;;;14.90;99.90;;;;;;5113915;28;20040;-73
2023/05/07 08:48:03;;;;;;;17.08;12.10;;;15.00;99.90;;;;;;5113675;28;20505;-74
2023/05/07 08:50:29;;;;;;;16.45;11.32;;;15.10;99.90;;;;;;5113897;28;20501;-74
2023/05/07 08:52:56;;;;;;;16.27;11.43;;;15.30;99.90;;;;;;5114042;28;20470;-74
2023/05/07 08:55:22;;;;;;;17.08;11.90;;;15.40;99.90;;;;;;5113700;28;20476;-74
2023/05/07 08:57:48;;;;;;;16.83;10.38;;;15.30;99.90;;;;;;5113389;28;20490;-74
2023/05/07 09:00:14;;;;;;;15.97;11.00;;;15.60;99.90;;;;;;5115566;28;20086;-74
2023/05/07 09:02:40;;;;;;;15.77;10.50;;;15.60;99.90;;;;;;5117477;28;20123;-74
2023/05/07 09:05:06;;;;;;;14.80;10.30;;;16.10;99.90;;;;;;5117230;28;20098;-74
2023/05/07 09:07:32;;;;;;;16.05;11.35;;;15.80;99.90;;;;;;5117850;28;20466;-74
2023/05/07 09:09:58;;;;;;;18.60;10.87;;;16.00;99.90;;;;;;5117356;28;20035;-74
2023/05/07 09:12:23;;;;;;;14.67;10.23;;;16.00;99.90;;;;;;5117241;28;20044;-74
2023/05/07 09:14:49;;;;;;;14.83;10.47;;;16.40;99.90;;;;;;5117681;28;20039;-74
2023/05/07 09:17:16;;;;;;;13.87;10.20;;;16.60;99.90;;;;;;5116923;28;20471;-74
2023/05/07 09:19:46;;;;;;;13.18;9.50;;;16.80;99.90;;;;;;5117222;28;20330;-74
2023/05/07 09:22:12;;;;;;;14.98;11.32;;;16.70;99.90;;;;;;5117070;28;20428;-74
2023/05/07 09:24:38;;;;;;;15.45;10.57;;;16.80;99.90;;;;;;5115871;28;20124;-74
2023/05/07 09:27:09;;;;;;;13.13;10.00;;;16.80;99.90;;;;;;5116805;28;20027;-74
2023/05/07 09:29:35;;;;;;;14.65;10.27;;;16.80;99.90;;;;;;5116913;28;20046;-75
2023/05/07 09:32:02;;;;;;;16.03;10.27;;;16.80;99.90;;;;;;5115986;28;20039;-74
2023/05/07 09:34:30;;;;;;;15.25;9.82;;;16.90;99.90;;;;;;5116827;28;20047;-78
2023/05/07 09:36:56;;;;;;;13.82;10.10;;;16.90;99.90;;;;;;5098344;28;20374;-74
2023/05/07 09:39:23;;;;;;;14.65;10.60;;;17.20;99.90;;;;;;5117037;28;20092;-74
2023/05/07 09:41:49;;;;;;;14.23;10.02;;;17.30;99.90;;;;;;5116691;28;20078;-74
2023/05/07 09:44:15;;;;;;;13.20;8.98;;;17.40;99.90;;;;;;5116620;28;20450;-78
2023/05/07 09:46:44;;;;;;;14.00;10.17;;;17.50;99.90;;;;;;5116850;28;20075;-82
2023/05/07 09:49:22;;;;;;;11.95;9.63;;;17.80;99.90;;;;;;5116443;28;20066;-77
2023/05/07 09:51:50;;;;;;;12.93;9.48;;;17.70;99.90;;;;;;5116690;28;20031;-77
2023/05/07 09:54:17;;;;;;;13.85;9.93;;;17.60;99.90;;;;;;5116430;28;20039;-74
2023/05/07 09:56:48;;;;;;;13.50;9.77;;;17.60;99.90;;;;;;5116462;28;20031;-73
2023/05/07 09:59:15;;;;;;;11.88;9.48;;;17.70;99.90;;;;;;5116992;28;20496;-73
2023/05/07 10:01:42;;;;;;;12.85;9.15;;;17.70;99.90;;;;;;5116304;28;20062;-76
2023/05/07 10:04:09;;;;;;;12.90;9.07;;;17.90;99.90;;;;;;5116170;28;20483;-73
2023/05/07 10:06:35;;;;;;;13.45;9.30;;;18.10;99.90;;;;;;5116135;28;20081;-74
2023/05/07 10:09:02;;;;;;;11.90;9.13;;;18.10;99.90;;;;;;5116077;28;20473;-73
2023/05/07 10:11:27;;;;;;;;;;;18.30;99.90;;;;;;5116501;28;20040;-78
2023/05/07 10:13:54;;;;;;;11.93;9.07;;;18.20;99.90;;;;;;5115557;28;20265;-75
2023/05/07 10:16:21;;;;;;;12.73;9.25;;;18.10;99.90;;;;;;5115650;28;20490;-75
2023/05/07 10:18:49;;;;;;;;;;;18.20;99.90;;;;;;5118695;28;20096;-77
2023/05/07 10:21:20;;;;;;;12.57;9.45;;;18.10;99.90;;;;;;5132489;27;19922;-75
2023/05/07 10:23:50;;;;;;;20.17;11.43;;;18.30;99.90;;;;;;5115894;28;20039;-74
2023/05/07 10:26:18;;;;;;;14.02;9.35;;;18.60;99.90;;;;;;5116155;28;20353;-73
2023/05/07 10:28:47;;;;;;;12.77;9.02;;;18.80;99.90;;;;;;5116103;27;20094;-73
2023/05/07 10:31:59;;;;;;;11.38;8.57;;;19.10;99.90;;;;;;5115957;28;20035;-74
2023/05/07 10:34:32;;;;;;;14.82;8.90;;;19.30;99.90;;;;;;5084724;28;20059;-74
2023/05/07 10:36:58;;;;;;;12.82;10.00;;;19.40;99.90;;;;;;5115626;28;20036;-74
2023/05/07 10:39:24;;;;;;;12.77;9.48;;;19.30;99.90;;;;;;5115307;28;20031;-74
2023/05/07 10:41:50;;;;;;;11.13;8.43;;;19.20;99.90;;;;;;5115485;28;20452;-74
2023/05/07 10:44:27;;;;;;;11.67;8.43;;;19.20;99.90;;;;;;5115552;28;20039;-74
2023/05/07 10:47:09;;;;;;;12.20;9.27;;;18.90;99.90;;;;;;5115117;28;20035;-74
2023/05/07 10:49:44;;;;;;;11.30;8.57;;;18.90;99.90;;;;;;5115469;28;20035;-74
2023/05/07 10:52:21;;;;;;;11.25;8.38;;;19.10;99.90;;;;;;5114064;28;20082;-73
2023/05/07 10:54:47;;;;;;;13.27;8.60;;;19.10;99.90;;;;;;5115324;28;20087;-76
2023/05/07 10:57:31;;;;;;;11.63;8.93;;;19.20;99.90;;;;;;5096949;28;20084;-72
2023/05/07 10:59:56;;;;;;;13.65;8.70;;;19.40;99.90;;;;;;5114835;28;20126;-73
2023/05/07 11:02:22;;;;;;;14.40;9.17;;;19.60;99.90;;;;;;5114029;28;20081;-72
2023/05/07 11:05:20;;;;;;;12.87;9.00;;;19.60;99.90;;;;;;5114608;28;20051;-73
2023/05/07 11:07:56;;;;;;;;;;;19.60;99.90;;;;;;5110825;28;20054;-75
2023/05/07 11:10:22;;;;;;;13.63;9.57;;;19.70;99.90;;;;;;5113777;28;19947;-76
2023/05/07 11:12:52;;;;;;;12.73;9.63;;;19.50;99.90;;;;;;5099239;28;20068;-73
2023/05/07 11:15:35;;;;;;;10.55;9.07;;;19.50;99.90;;;;;;5093238;28;20087;-74
2023/05/07 11:18:03;;;;;;;10.90;9.02;;;19.50;99.90;;;;;;5104039;28;20032;-73
2023/05/07 11:20:52;;;;;;;12.27;8.60;;;19.40;99.90;;;;;;5114343;28;20039;-76
2023/05/07 11:23:33;;;;;;;12.88;9.30;;;19.50;99.90;;;;;;5097512;28;20055;-76
2023/05/07 11:26:05;;;;;;;10.55;8.45;;;19.70;99.90;;;;;;5076263;28;20059;-76
2023/05/07 11:28:38;;;;;;;13.85;9.63;;;19.80;99.90;;;;;;5094232;28;20039;-77
2023/05/07 11:31:04;;;;;;;13.95;8.95;;;19.90;99.90;;;;;;5094475;28;20032;-74
2023/05/07 11:33:33;;;;;;;12.18;8.77;;;20.00;99.90;;;;;;5096450;28;20039;-77
2023/05/07 11:36:01;;;;;;;11.73;8.82;;;20.10;99.90;;;;;;5094127;28;20074;-74
2023/05/07 11:38:29;;;;;;;11.95;8.90;;;20.00;99.90;;;;;;5106104;28;20039;-75
2023/05/07 11:40:57;;;;;;;11.35;7.93;;;20.00;99.90;;;;;;5106407;28;20077;-73
2023/05/07 11:43:22;;;;;;;12.45;9.40;;;19.90;99.90;;;;;;5093769;28;20487;-76
2023/05/07 11:45:49;;;;;;;11.87;8.60;;;19.80;99.90;;;;;;5094017;28;20048;-74
2023/05/07 11:48:16;;;;;;;11.18;8.93;;;19.90;99.90;;;;;;5094033;28;20430;-73
2023/05/07 11:50:52;;;;;;;;;;;19.90;99.90;;;;;;5114950;28;20139;-73
2023/05/07 11:53:18;;;;;;;10.88;8.18;;;20.00;99.90;;;;;;5114273;28;19969;-78
2023/05/07 11:55:44;;;;;;;10.52;8.02;;;20.00;99.90;;;;;;5113263;28;20156;-73
2023/05/07 11:58:12;;;;;;;10.50;7.67;;;19.90;99.90;;;;;;5114789;28;20148;-75
2023/05/07 12:00:37;;;;;;;10.85;8.18;;;19.90;99.90;;;;;;5113703;28;20044;-75
2023/05/07 12:03:04;;;;;;;12.57;8.57;;;20.00;99.90;;;;;;5113754;28;20093;-75
2023/05/07 12:05:30;;;;;;;11.18;8.63;;;20.10;99.90;;;;;;5114219;28;20042;-75
2023/05/07 12:07:57;;;;;;;9.53;8.20;;;20.00;99.90;;;;;;5112261;28;20479;-74
2023/05/07 12:10:24;;;;;;;11.73;7.93;;;20.00;99.90;;;;;;5113719;28;20096;-72
2023/05/07 12:12:50;;;;;;;12.35;8.90;;;20.00;99.90;;;;;;5112918;28;20043;-73
2023/05/07 12:15:17;;;;;;;16.42;9.13;;;19.80;99.90;;;;;;5114101;28;20055;-73
2023/05/07 12:17:43;;;;;;;14.38;9.43;;;19.70;99.90;;;;;;5114018;28;20088;-72
2023/05/07 12:20:10;;;;;;;11.68;8.65;;;19.70;99.90;;;;;;5112447;28;20043;-72
2023/05/07 12:22:36;;;;;;;;;;;19.60;99.90;;;;;;5114343;28;20039;-73
2023/05/07 12:25:02;;;;;;;12.32;8.43;;;19.70;99.90;;;;;;5113899;28;19923;-73
2023/05/07 12:27:28;;;;;;;10.70;8.57;;;19.80;99.90;;;;;;5112700;28;20043;-72
2023/05/07 12:29:53;;;;;;;9.33;8.07;;;19.80;99.90;;;;;;5113899;28;20119;-71
2023/05/07 12:32:20;;;;;;;11.27;8.77;;;19.80;99.90;;;;;;5113594;28;20348;-70